createdAt,value
2023-03-15T00:00:21.982Z,7.30
2023-03-15T00:03:16.415Z,8.20
2023-03-15T00:05:52.688Z,8.10
2023-03-15T00:08:26.808Z,7.60
2023-03-15T00:11:00.670Z,7.60
2023-03-15T00:13:35.040Z,7.90
2023-03-15T00:16:09.638Z,8.10
2023-03-15T00:18:43.498Z,8.50
2023-03-15T00:21:17.202Z,8.60
2023-03-15T00:23:50.887Z,8.10
2023-03-15T00:26:25.155Z,8.20
2023-03-15T00:28:58.705Z,8.70
2023-03-15T00:31:32.440Z,8.10
2023-03-15T00:34:05.897Z,7.90
2023-03-15T00:36:39.530Z,7.20
2023-03-15T00:39:13.055Z,7.00
2023-03-15T00:41:47.246Z,5.10
2023-03-15T00:44:21.637Z,3.40
2023-03-15T00:46:55.760Z,1.90
2023-03-15T00:49:29.502Z,1.50
2023-03-15T00:52:03.779Z,1.10
2023-03-15T00:54:38.027Z,0.90
2023-03-15T00:57:11.918Z,1.10
2023-03-15T00:59:45.586Z,0.90
2023-03-15T01:02:22.406Z,0.70
2023-03-15T01:04:56.588Z,0.80
2023-03-15T01:07:30.363Z,1.20
2023-03-15T01:10:03.953Z,1.00
2023-03-15T01:12:37.991Z,0.60
2023-03-15T01:15:15.048Z,0.70
2023-03-15T01:17:49.062Z,0.80
2023-03-15T01:20:22.825Z,0.70
2023-03-15T01:22:56.193Z,0.90
2023-03-15T01:25:29.494Z,1.00
2023-03-15T01:28:03.823Z,0.90
2023-03-15T01:30:37.475Z,0.90
2023-03-15T01:33:11.571Z,0.90
2023-03-15T01:35:45.349Z,0.90
2023-03-15T01:38:19.288Z,1.00
2023-03-15T01:40:53.194Z,1.00
2023-03-15T01:43:28.303Z,0.90
2023-03-15T01:46:08.467Z,0.90
2023-03-15T01:48:50.189Z,1.00
2023-03-15T01:51:34.717Z,0.80
2023-03-15T01:54:12.313Z,0.80
2023-03-15T01:56:54.108Z,1.80
2023-03-15T01:59:32.470Z,1.00
2023-03-15T02:02:07.131Z,0.70
2023-03-15T02:04:46.829Z,0.80
2023-03-15T02:07:23.055Z,1.20
2023-03-15T02:10:03.735Z,0.90
2023-03-15T02:12:43.662Z,0.90
2023-03-15T02:15:18.053Z,0.70
2023-03-15T02:17:52.313Z,0.90
2023-03-15T02:20:37.697Z,0.90
2023-03-15T02:23:14.855Z,0.80
2023-03-15T02:25:58.431Z,0.90
2023-03-15T02:28:34.853Z,0.80
2023-03-15T02:31:08.257Z,1.10
2023-03-15T02:33:45.615Z,0.90
2023-03-15T02:36:23.713Z,0.80
2023-03-15T02:38:58.311Z,0.90
2023-03-15T02:41:36.779Z,0.80
2023-03-15T02:44:13.567Z,1.00
2023-03-15T02:46:49.658Z,0.90
2023-03-15T02:49:29.991Z,1.10
2023-03-15T02:52:04.029Z,1.00
2023-03-15T02:54:37.413Z,1.00
2023-03-15T02:57:11.526Z,1.00
2023-03-15T02:59:45.233Z,1.60
2023-03-15T03:02:19.316Z,0.90
2023-03-15T03:04:54.269Z,1.40
2023-03-15T03:07:28.628Z,0.80
2023-03-15T03:10:08.149Z,1.10
2023-03-15T03:12:53.850Z,1.00
2023-03-15T03:15:33.362Z,1.10
2023-03-15T03:18:07.452Z,1.10
2023-03-15T03:20:41.534Z,1.10
2023-03-15T03:23:15.824Z,1.10
2023-03-15T03:25:49.513Z,1.10
2023-03-15T03:28:24.537Z,1.10
2023-03-15T03:30:59.648Z,1.20
2023-03-15T03:33:33.215Z,1.30
2023-03-15T03:36:07.150Z,1.40
2023-03-15T03:38:40.986Z,1.60
2023-03-15T03:41:15.471Z,2.00
2023-03-15T03:43:49.796Z,1.90
2023-03-15T03:46:23.606Z,1.40
2023-03-15T03:48:59.295Z,1.70
2023-03-15T03:51:34.540Z,1.50
2023-03-15T03:54:08.657Z,1.80
2023-03-15T03:56:42.506Z,1.80
2023-03-15T03:59:16.517Z,2.20
2023-03-15T04:01:58.066Z,2.00
2023-03-15T04:04:31.542Z,2.00
2023-03-15T04:07:05.592Z,2.20
2023-03-15T04:09:43.082Z,2.00
2023-03-15T04:12:17.233Z,1.70
2023-03-15T04:14:52.443Z,2.30
2023-03-15T04:17:28.299Z,2.10
2023-03-15T04:20:06.274Z,2.30
2023-03-15T04:22:50.286Z,3.10
2023-03-15T04:25:34.624Z,2.40
2023-03-15T04:28:19.169Z,2.20
2023-03-15T04:31:19.430Z,2.30
2023-03-15T04:34:19.818Z,2.80
2023-03-15T04:37:10.726Z,3.20
2023-03-15T04:40:08.949Z,2.10
2023-03-15T04:42:55.830Z,2.50
2023-03-15T04:45:48.305Z,2.60
2023-03-15T04:48:47.842Z,2.60
2023-03-15T04:51:57.101Z,2.60
2023-03-15T04:54:46.806Z,2.20
2023-03-15T04:57:44.305Z,2.80
2023-03-15T05:00:37.103Z,2.20
2023-03-15T05:03:29.211Z,2.70
2023-03-15T05:06:21.853Z,2.60
2023-03-15T05:09:19.570Z,2.50
2023-03-15T05:12:16.569Z,2.80
2023-03-15T05:15:18.865Z,3.10
2023-03-15T05:18:19.461Z,3.70
2023-03-15T05:21:12.968Z,4.10
2023-03-15T05:24:05.670Z,3.50
2023-03-15T05:26:58.622Z,4.00
2023-03-15T05:29:52.836Z,3.80
2023-03-15T05:32:53.561Z,3.90
2023-03-15T05:35:46.333Z,3.80
2023-03-15T05:38:27.006Z,4.40
2023-03-15T05:41:19.529Z,3.70
2023-03-15T05:44:02.805Z,3.70
2023-03-15T05:47:06.190Z,3.60
2023-03-15T05:49:58.136Z,3.80
2023-03-15T05:53:04.105Z,4.40
2023-03-15T05:56:11.603Z,4.50
2023-03-15T05:58:58.863Z,4.60
2023-03-15T06:01:51.948Z,4.60
2023-03-15T06:04:30.667Z,5.10
2023-03-15T06:07:04.640Z,4.90
2023-03-15T06:09:39.306Z,5.10
2023-03-15T06:12:13.959Z,4.00
2023-03-15T06:14:48.595Z,5.90
2023-03-15T06:17:22.469Z,4.90
2023-03-15T06:19:56.577Z,4.70
2023-03-15T06:22:30.025Z,4.90
2023-03-15T06:25:10.000Z,5.30
2023-03-15T06:27:43.563Z,4.60
2023-03-15T06:30:18.205Z,5.50
2023-03-15T06:32:53.262Z,5.20
2023-03-15T06:35:27.289Z,4.00
2023-03-15T06:38:01.464Z,4.30
2023-03-15T06:40:35.475Z,4.10
2023-03-15T06:43:09.290Z,4.80
2023-03-15T06:45:43.311Z,5.00
2023-03-15T06:48:17.801Z,5.20
2023-03-15T06:50:51.784Z,5.70
2023-03-15T06:53:25.480Z,5.70
2023-03-15T06:55:59.307Z,5.50
2023-03-15T06:58:33.191Z,5.60
2023-03-15T07:01:08.411Z,5.50
2023-03-15T07:03:42.316Z,5.10
2023-03-15T07:06:15.840Z,5.70
2023-03-15T07:08:49.382Z,5.10
2023-03-15T07:11:23.460Z,5.10
2023-03-15T07:13:57.271Z,5.50
2023-03-15T07:16:31.340Z,5.20
2023-03-15T07:19:05.635Z,5.30
2023-03-15T07:21:39.533Z,5.90
2023-03-15T07:24:13.626Z,5.30
2023-03-15T07:26:47.159Z,5.40
2023-03-15T07:29:20.685Z,5.30
2023-03-15T07:31:54.178Z,6.20
2023-03-15T07:34:28.119Z,6.70
2023-03-15T07:37:02.041Z,5.80
2023-03-15T07:39:35.815Z,5.40
2023-03-15T07:42:10.044Z,6.70
2023-03-15T07:44:48.326Z,5.90
2023-03-15T07:47:22.197Z,4.90
2023-03-15T07:49:56.161Z,6.00
2023-03-15T07:52:29.580Z,4.80
2023-03-15T07:55:05.179Z,4.70
2023-03-15T07:57:39.471Z,5.10
2023-03-15T08:00:15.610Z,4.60
2023-03-15T08:02:49.481Z,4.90
2023-03-15T08:05:23.128Z,5.70
2023-03-15T08:07:57.125Z,5.30
2023-03-15T08:10:31.938Z,5.40
2023-03-15T08:13:05.885Z,5.60
2023-03-15T08:15:39.496Z,6.10
2023-03-15T08:18:13.319Z,5.30
2023-03-15T08:20:46.791Z,5.20
2023-03-15T08:23:20.702Z,5.50
2023-03-15T08:25:54.361Z,5.00
2023-03-15T08:28:28.147Z,4.70
2023-03-15T08:31:01.957Z,5.00
2023-03-15T08:33:35.894Z,4.80
2023-03-15T08:36:10.717Z,5.40
2023-03-15T08:38:44.622Z,4.30
2023-03-15T08:41:18.521Z,4.60
2023-03-15T08:43:52.782Z,4.30
2023-03-15T08:46:26.791Z,4.10
2023-03-15T08:49:01.243Z,4.40
2023-03-15T08:51:35.946Z,4.70
2023-03-15T08:54:09.245Z,4.20
2023-03-15T08:56:42.993Z,4.40
2023-03-15T08:59:28.952Z,4.00
2023-03-15T09:02:05.758Z,4.00
2023-03-15T09:04:40.322Z,3.90
2023-03-15T09:07:14.437Z,4.00
2023-03-15T09:09:48.590Z,4.40
2023-03-15T09:12:23.073Z,4.10
2023-03-15T09:14:57.447Z,4.00
2023-03-15T09:17:32.053Z,4.40
2023-03-15T09:20:09.348Z,4.40
2023-03-15T09:22:43.006Z,4.00
2023-03-15T09:25:17.024Z,3.90
2023-03-15T09:27:50.911Z,4.10
2023-03-15T09:30:25.783Z,3.90
2023-03-15T09:32:59.523Z,3.90
2023-03-15T09:35:33.795Z,4.20
2023-03-15T09:38:07.548Z,4.60
2023-03-15T09:40:46.561Z,4.60
2023-03-15T09:43:47.173Z,4.80
2023-03-15T09:46:31.293Z,4.60
2023-03-15T09:49:14.507Z,4.50
2023-03-15T09:51:53.265Z,4.20
2023-03-15T09:57:04.893Z,5.30
2023-03-15T09:59:43.894Z,4.10
2023-03-15T10:02:25.508Z,4.40
2023-03-15T10:05:04.221Z,4.30
2023-03-15T10:07:38.640Z,4.40
2023-03-15T10:10:20.240Z,4.40
2023-03-15T10:13:02.891Z,4.80
2023-03-15T10:15:46.581Z,4.40
2023-03-15T10:18:36.322Z,4.40
2023-03-15T10:21:17.844Z,4.40
2023-03-15T10:23:55.224Z,4.40
2023-03-15T10:26:34.556Z,4.70
2023-03-15T10:29:16.584Z,4.30
2023-03-15T10:31:53.061Z,4.30
2023-03-15T10:34:27.859Z,4.50
2023-03-15T10:37:01.792Z,4.50
2023-03-15T10:39:35.653Z,3.80
2023-03-15T10:42:24.243Z,4.50
2023-03-15T10:44:58.226Z,4.00
2023-03-15T10:47:32.009Z,4.60
2023-03-15T10:50:06.255Z,4.70
2023-03-15T10:52:42.227Z,4.90
2023-03-15T10:55:18.678Z,4.50
2023-03-15T10:57:58.010Z,4.80
2023-03-15T11:00:34.840Z,4.20
2023-03-15T11:03:18.094Z,4.20
2023-03-15T11:05:53.537Z,4.70
2023-03-15T11:08:39.047Z,4.10
2023-03-15T11:11:13.071Z,4.30
2023-03-15T11:14:02.074Z,4.10
2023-03-15T11:16:39.721Z,4.70
2023-03-15T11:19:20.122Z,3.70
2023-03-15T11:21:54.780Z,3.70
2023-03-15T11:24:30.568Z,3.90
2023-03-15T11:27:05.937Z,4.20
2023-03-15T11:29:42.067Z,3.90
2023-03-15T11:32:21.002Z,3.20
2023-03-15T11:35:02.467Z,3.30
2023-03-15T11:37:41.979Z,3.50
2023-03-15T11:40:20.666Z,3.60
2023-03-15T11:45:38.043Z,3.40
2023-03-15T11:48:34.283Z,3.20
2023-03-15T11:51:09.993Z,3.40
2023-03-15T11:53:47.878Z,3.30
2023-03-15T11:56:31.008Z,3.50
2023-03-15T11:59:11.718Z,4.00
2023-03-15T12:01:50.266Z,4.00
2023-03-15T12:07:40.400Z,3.50
2023-03-15T12:10:49.915Z,3.90
2023-03-15T12:13:28.123Z,3.70
2023-03-15T12:16:02.389Z,3.80
2023-03-15T12:18:46.574Z,3.40
2023-03-15T12:21:25.363Z,3.60
2023-03-15T12:24:05.647Z,4.00
2023-03-15T12:26:50.813Z,4.10
2023-03-15T12:29:26.581Z,3.60
2023-03-15T12:32:07.967Z,3.10
2023-03-15T12:34:49.530Z,3.40
2023-03-15T12:37:26.177Z,3.60
2023-03-15T12:40:26.849Z,3.60
2023-03-15T12:43:07.760Z,3.60
2023-03-15T12:45:45.857Z,3.30
2023-03-15T12:48:27.696Z,3.70
2023-03-15T12:51:07.511Z,3.40
2023-03-15T12:53:47.908Z,3.90
2023-03-15T12:56:33.027Z,3.80
2023-03-15T12:59:17.211Z,3.90
2023-03-15T13:01:52.342Z,3.90
2023-03-15T13:04:28.024Z,4.10
2023-03-15T13:07:25.347Z,3.50
2023-03-15T13:10:29.685Z,3.40
2023-03-15T13:13:14.451Z,4.70
2023-03-15T13:16:00.196Z,3.60
2023-03-15T13:18:38.315Z,3.60
2023-03-15T13:21:19.964Z,3.50
2023-03-15T13:23:58.852Z,3.40
2023-03-15T13:29:18.007Z,3.80
2023-03-15T13:32:04.870Z,4.10
2023-03-15T13:34:39.155Z,5.10
2023-03-15T13:37:22.290Z,4.20
2023-03-15T13:40:02.546Z,4.90
2023-03-15T13:42:41.321Z,4.80
2023-03-15T13:47:51.731Z,5.40
2023-03-15T13:50:25.903Z,5.60
2023-03-15T13:53:00.104Z,5.40
2023-03-15T13:55:37.984Z,4.60
2023-03-15T13:58:12.843Z,5.00
2023-03-15T14:00:47.575Z,4.70
2023-03-15T14:03:24.397Z,4.80
2023-03-15T14:06:00.047Z,5.30
2023-03-15T14:08:37.189Z,5.10
2023-03-15T14:11:19.920Z,5.20
2023-03-15T14:13:58.204Z,5.10
2023-03-15T14:17:01.004Z,5.50
2023-03-15T14:19:37.730Z,5.20
2023-03-15T14:22:20.326Z,5.40
2023-03-15T14:24:55.225Z,4.80
2023-03-15T14:27:30.994Z,5.20
2023-03-15T14:30:06.860Z,5.20
2023-03-15T14:32:52.748Z,5.20
2023-03-15T14:35:31.867Z,4.30
2023-03-15T14:38:17.225Z,5.60
2023-03-15T14:40:52.489Z,5.50
2023-03-15T14:43:27.325Z,6.20
2023-03-15T14:46:02.076Z,6.70
2023-03-15T14:48:36.168Z,6.90
2023-03-15T14:51:15.193Z,5.40
2023-03-15T14:53:50.910Z,8.00
2023-03-15T14:56:25.174Z,7.20
2023-03-15T14:58:59.146Z,5.20
2023-03-15T15:01:33.644Z,4.40
2023-03-15T15:04:08.093Z,5.00
2023-03-15T15:06:53.524Z,4.90
2023-03-15T15:09:31.339Z,5.20
2023-03-15T15:12:05.390Z,4.40
2023-03-15T15:14:39.014Z,4.00
2023-03-15T15:17:13.817Z,5.70
2023-03-15T15:19:47.697Z,4.50
2023-03-15T15:22:22.016Z,5.50
2023-03-15T15:24:58.226Z,4.60
2023-03-15T15:27:32.461Z,4.30
2023-03-15T15:30:09.948Z,4.80
2023-03-15T15:32:50.363Z,5.00
2023-03-15T15:35:24.711Z,5.20
2023-03-15T15:37:59.424Z,4.80
2023-03-15T15:40:35.474Z,5.20
2023-03-15T15:43:12.216Z,5.50
2023-03-15T15:45:47.250Z,5.20
2023-03-15T15:48:21.421Z,4.90
2023-03-15T15:50:57.068Z,4.70
2023-03-15T15:53:34.648Z,5.10
2023-03-15T15:56:12.946Z,5.70
2023-03-15T15:58:48.302Z,5.10
2023-03-15T16:01:23.278Z,7.40
2023-03-15T16:03:58.710Z,5.90
2023-03-15T16:06:35.486Z,6.10
2023-03-15T16:09:14.156Z,4.80
2023-03-15T16:11:49.500Z,6.10
2023-03-15T16:14:24.967Z,4.80
2023-03-15T16:17:00.359Z,4.40
2023-03-15T16:19:34.947Z,4.40
2023-03-15T16:22:09.077Z,3.90
2023-03-15T16:24:48.115Z,3.90
2023-03-15T16:27:29.879Z,4.30
2023-03-15T16:30:17.950Z,5.00
2023-03-15T16:32:55.959Z,4.60
2023-03-15T16:35:37.446Z,4.70
2023-03-15T16:38:24.821Z,4.40
2023-03-15T16:41:02.825Z,4.30
2023-03-15T16:43:43.479Z,4.10
2023-03-15T16:46:26.455Z,4.30
2023-03-15T16:49:04.980Z,4.20
2023-03-15T16:51:45.330Z,4.80
2023-03-15T16:57:26.277Z,5.00
2023-03-15T17:00:12.771Z,5.60
2023-03-15T17:02:53.329Z,6.50
2023-03-15T17:05:31.511Z,6.70
2023-03-15T17:08:08.088Z,5.90
2023-03-15T17:10:49.710Z,5.40
2023-03-15T17:13:37.850Z,6.20
2023-03-15T17:18:54.835Z,5.30
2023-03-15T17:21:38.915Z,6.70
2023-03-15T17:24:17.582Z,6.00
2023-03-15T17:26:58.648Z,6.50
2023-03-15T17:29:38.223Z,6.60
2023-03-15T17:32:21.333Z,7.20
2023-03-15T17:35:02.785Z,7.00
2023-03-15T17:37:46.073Z,7.60
2023-03-15T17:40:39.305Z,6.90
2023-03-15T17:43:20.600Z,7.30
2023-03-15T17:46:01.860Z,7.80
2023-03-15T17:48:44.948Z,8.30
2023-03-15T17:51:24.945Z,8.90
2023-03-15T17:54:01.875Z,7.30
2023-03-15T17:56:46.941Z,7.90
2023-03-15T17:59:22.149Z,7.20
2023-03-15T18:01:59.473Z,8.40
2023-03-15T18:04:41.448Z,8.00
2023-03-15T18:07:20.687Z,7.70
2023-03-15T18:10:00.872Z,7.70
2023-03-15T18:12:40.788Z,7.90
2023-03-15T18:15:24.855Z,8.40
2023-03-15T18:18:01.141Z,9.10
2023-03-15T18:20:38.098Z,9.80
2023-03-15T18:23:18.486Z,9.30
2023-03-15T18:25:57.314Z,8.90
2023-03-15T18:28:35.277Z,9.50
2023-03-15T18:31:17.738Z,8.80
2023-03-15T18:33:55.861Z,10.30
2023-03-15T18:36:34.836Z,10.50
2023-03-15T18:39:13.309Z,10.40
2023-03-15T18:44:27.292Z,11.50
2023-03-15T18:47:08.409Z,12.20
2023-03-15T18:49:51.150Z,11.80
2023-03-15T18:52:32.591Z,12.30
2023-03-15T18:55:17.842Z,12.20
2023-03-15T18:57:58.441Z,12.70
2023-03-15T19:00:38.028Z,13.10
2023-03-15T19:03:20.554Z,11.30
2023-03-15T19:06:10.970Z,13.30
2023-03-15T19:08:56.169Z,14.30
2023-03-15T19:11:39.467Z,14.60
2023-03-15T19:14:17.797Z,15.50
2023-03-15T19:17:00.899Z,15.00
2023-03-15T19:19:39.028Z,14.00
2023-03-15T19:22:16.070Z,15.30
2023-03-15T19:24:55.662Z,13.60
2023-03-15T19:27:33.554Z,12.90
2023-03-15T19:30:15.786Z,13.00
2023-03-15T19:33:05.009Z,13.50
2023-03-15T19:35:42.664Z,14.30
2023-03-15T19:41:01.981Z,12.10
2023-03-15T19:43:44.133Z,13.40
2023-03-15T19:46:29.686Z,12.70
2023-03-15T19:49:11.661Z,12.80
2023-03-15T19:51:53.094Z,12.30
2023-03-15T19:54:34.171Z,11.10
2023-03-15T19:57:16.565Z,12.20
2023-03-15T19:59:55.011Z,11.60
2023-03-15T20:02:37.667Z,12.10
2023-03-15T20:05:17.975Z,11.30
2023-03-15T20:07:59.571Z,10.10
2023-03-15T20:10:41.356Z,12.00
2023-03-15T20:13:23.003Z,12.10
2023-03-15T20:16:02.728Z,14.20
2023-03-15T20:18:44.072Z,12.50
2023-03-15T20:21:23.380Z,12.20
2023-03-15T20:24:05.807Z,13.00
2023-03-15T20:26:47.720Z,13.60
2023-03-15T20:29:28.030Z,12.20
2023-03-15T20:32:05.715Z,13.10
2023-03-15T20:34:47.351Z,13.40
2023-03-15T20:37:25.670Z,13.90
2023-03-15T20:40:10.974Z,14.40
2023-03-15T20:42:52.429Z,13.00
2023-03-15T20:45:33.173Z,13.10
2023-03-15T20:48:11.477Z,12.70
2023-03-15T20:53:25.346Z,13.20
2023-03-15T20:56:05.739Z,15.50
2023-03-15T20:58:43.715Z,15.70
2023-03-15T21:01:27.234Z,14.70
2023-03-15T21:04:09.873Z,13.40
2023-03-15T21:06:51.800Z,13.60
2023-03-15T21:09:31.629Z,12.30
2023-03-15T21:12:16.986Z,13.20
2023-03-15T21:15:03.649Z,13.00
2023-03-15T21:17:42.431Z,15.50
2023-03-15T21:20:19.160Z,11.70
2023-03-15T21:22:57.417Z,13.10
2023-03-15T21:28:09.586Z,11.90
2023-03-15T21:30:45.867Z,15.70
2023-03-15T21:33:20.872Z,14.90
2023-03-15T21:36:00.262Z,16.30
2023-03-15T21:38:38.050Z,16.30
2023-03-15T21:41:14.585Z,17.60
2023-03-15T21:43:53.336Z,19.40
2023-03-15T21:46:28.366Z,20.00
2023-03-15T21:49:04.507Z,19.30
2023-03-15T21:51:39.898Z,22.40
2023-03-15T21:54:15.613Z,21.30
2023-03-15T21:56:53.738Z,22.60
2023-03-15T21:59:28.781Z,20.90
2023-03-15T22:02:04.063Z,22.80
2023-03-15T22:04:38.588Z,20.00
2023-03-15T22:07:12.986Z,20.30
2023-03-15T22:09:46.900Z,20.90
2023-03-15T22:12:20.853Z,21.20
2023-03-15T22:15:05.377Z,21.10
2023-03-15T22:17:39.863Z,21.60
2023-03-15T22:20:17.090Z,20.90
2023-03-15T22:22:51.628Z,22.80
2023-03-15T22:25:25.876Z,21.60
2023-03-15T22:27:59.194Z,22.20
2023-03-15T22:30:33.487Z,21.80
2023-03-15T22:33:07.544Z,22.40
2023-03-15T22:35:41.803Z,23.00
2023-03-15T22:38:16.086Z,22.80
2023-03-15T22:40:49.923Z,22.60
2023-03-15T22:43:23.922Z,21.00
2023-03-15T22:45:57.640Z,21.20
2023-03-15T22:48:32.238Z,21.10
2023-03-15T22:51:07.254Z,22.40
2023-03-15T22:53:40.820Z,22.00
2023-03-15T22:56:14.713Z,21.60
2023-03-15T22:58:49.082Z,20.00
2023-03-15T23:01:23.119Z,16.90
2023-03-15T23:03:57.139Z,19.00
2023-03-15T23:06:30.835Z,19.60
2023-03-15T23:09:06.592Z,21.20
2023-03-15T23:11:40.679Z,22.50
2023-03-15T23:14:14.736Z,21.50
2023-03-15T23:16:48.568Z,20.20
2023-03-15T23:19:22.688Z,18.30
2023-03-15T23:21:56.163Z,18.30
2023-03-15T23:24:29.732Z,19.30
2023-03-15T23:27:03.717Z,17.30
2023-03-15T23:29:53.014Z,15.20
2023-03-15T23:32:28.242Z,14.70
2023-03-15T23:35:03.428Z,14.00
2023-03-15T23:37:37.300Z,14.40
2023-03-15T23:40:15.542Z,13.30
2023-03-15T23:42:53.263Z,13.00
2023-03-15T23:45:28.316Z,14.20
2023-03-15T23:48:02.758Z,12.70
2023-03-15T23:50:39.256Z,14.70
2023-03-15T23:53:12.757Z,14.60
2023-03-15T23:55:46.447Z,12.20
2023-03-15T23:58:20.073Z,12.70
